createdAt,value
2023-01-28T00:00:51.980Z,7.70
2023-01-28T00:03:19.011Z,7.57
2023-01-28T00:05:45.692Z,8.07
2023-01-28T00:08:14.836Z,10.63
2023-01-28T00:10:45.507Z,8.98
2023-01-28T00:13:14.737Z,7.25
2023-01-28T00:15:41.738Z,8.88
2023-01-28T00:18:08.487Z,9.10
2023-01-28T00:20:35.542Z,9.63
2023-01-28T00:23:02.516Z,10.05
2023-01-28T00:25:29.165Z,8.82
2023-01-28T00:27:55.827Z,10.50
2023-01-28T00:30:22.707Z,7.53
2023-01-28T00:32:49.576Z,7.15
2023-01-28T00:35:16.735Z,10.00
2023-01-28T00:37:47.225Z,6.60
2023-01-28T00:40:14.144Z,7.32
2023-01-28T00:42:40.991Z,9.25
2023-01-28T00:45:08.571Z,12.82
2023-01-28T00:47:35.498Z,7.95
2023-01-28T00:50:02.604Z,6.85
2023-01-28T00:52:29.935Z,8.18
2023-01-28T00:54:57.431Z,8.80
2023-01-28T00:57:24.805Z,7.60
2023-01-28T00:59:51.443Z,9.30
2023-01-28T01:02:18.263Z,9.43
2023-01-28T01:04:54.778Z,8.88
2023-01-28T01:07:32.153Z,9.45
2023-01-28T01:10:00.971Z,8.40
2023-01-28T01:12:28.332Z,8.63
2023-01-28T01:14:56.325Z,9.85
2023-01-28T01:17:23.194Z,9.48
2023-01-28T01:19:49.833Z,9.73
2023-01-28T01:22:16.610Z,8.57
2023-01-28T01:24:43.359Z,10.70
2023-01-28T01:27:10.014Z,8.65
2023-01-28T01:29:36.913Z,8.63
2023-01-28T01:32:03.789Z,8.38
2023-01-28T01:34:30.509Z,8.80
2023-01-28T01:36:57.269Z,6.80
2023-01-28T01:39:23.917Z,6.90
2023-01-28T01:41:50.650Z,7.22
2023-01-28T01:44:54.894Z,7.22
2023-01-28T01:47:36.741Z,7.75
2023-01-28T01:50:32.729Z,9.07
2023-01-28T01:53:12.380Z,9.38
2023-01-28T01:55:42.948Z,7.95
2023-01-28T01:58:13.543Z,5.75
2023-01-28T02:00:41.827Z,6.43
2023-01-28T02:03:10.839Z,10.52
2023-01-28T02:05:38.440Z,9.60
2023-01-28T02:08:21.105Z,8.93
2023-01-28T02:11:02.515Z,9.00
2023-01-28T02:13:34.697Z,9.88
2023-01-28T02:16:03.050Z,9.85
2023-01-28T02:18:29.820Z,15.25
2023-01-28T02:21:15.351Z,8.70
2023-01-28T02:23:41.969Z,10.82
2023-01-28T02:26:19.278Z,7.35
2023-01-28T02:29:15.371Z,8.45
2023-01-28T02:31:54.339Z,8.10
2023-01-28T02:34:23.949Z,9.00
2023-01-28T02:36:57.134Z,8.30
2023-01-28T02:39:27.060Z,11.63
2023-01-28T02:41:59.166Z,11.10
2023-01-28T02:44:26.106Z,10.98
2023-01-28T02:47:12.382Z,6.97
2023-01-28T02:49:46.792Z,6.95
2023-01-28T02:52:53.642Z,11.45
2023-01-28T02:55:39.031Z,9.25
2023-01-28T02:58:10.698Z,10.05
2023-01-28T03:00:46.444Z,9.07
2023-01-28T03:03:26.857Z,11.57
2023-01-28T03:06:07.067Z,9.82
2023-01-28T03:09:04.240Z,7.85
2023-01-28T03:11:54.924Z,8.88
2023-01-28T03:14:42.061Z,6.32
2023-01-28T03:17:35.112Z,7.85
2023-01-28T03:20:20.496Z,8.57
2023-01-28T03:23:11.969Z,13.55
2023-01-28T03:26:00.887Z,39.45
2023-01-28T03:28:47.905Z,58.45
2023-01-28T03:31:36.465Z,40.60
2023-01-28T03:34:23.828Z,25.50
2023-01-28T03:36:51.224Z,12.02
2023-01-28T03:39:24.343Z,10.35
2023-01-28T03:42:07.272Z,4.20
2023-01-28T03:44:53.031Z,7.32
2023-01-28T03:47:22.463Z,8.98
2023-01-28T03:49:51.037Z,5.40
2023-01-28T03:52:26.227Z,7.32
2023-01-28T03:54:53.124Z,6.78
2023-01-28T03:57:26.067Z,7.57
2023-01-28T03:59:52.992Z,8.50
2023-01-28T04:02:21.730Z,6.93
2023-01-28T04:04:50.245Z,6.80
2023-01-28T04:07:17.233Z,7.10
2023-01-28T04:09:44.371Z,5.57
2023-01-28T04:12:11.438Z,6.32
2023-01-28T04:14:39.976Z,5.20
2023-01-28T04:17:09.644Z,9.95
2023-01-28T04:19:37.169Z,9.00
2023-01-28T04:22:10.062Z,5.13
2023-01-28T04:24:36.806Z,7.85
2023-01-28T04:27:03.552Z,3.67
2023-01-28T04:29:31.227Z,5.90
2023-01-28T04:31:57.935Z,3.63
2023-01-28T04:34:24.608Z,3.00
2023-01-28T04:36:51.287Z,5.63
2023-01-28T04:39:17.967Z,6.78
2023-01-28T04:41:44.693Z,5.80
2023-01-28T04:44:11.395Z,7.43
2023-01-28T04:46:38.181Z,6.60
2023-01-28T04:49:04.905Z,6.28
2023-01-28T04:51:31.636Z,5.13
2023-01-28T04:53:58.401Z,4.88
2023-01-28T04:56:25.053Z,5.88
2023-01-28T04:58:51.712Z,4.88
2023-01-28T05:01:18.529Z,8.30
2023-01-28T05:03:45.215Z,8.95
2023-01-28T05:06:12.007Z,4.68
2023-01-28T05:08:38.830Z,5.80
2023-01-28T05:11:05.590Z,6.13
2023-01-28T05:13:32.272Z,4.90
2023-01-28T05:15:59.134Z,2.75
2023-01-28T05:18:25.942Z,5.20
2023-01-28T05:20:52.594Z,4.43
2023-01-28T05:23:19.491Z,4.32
2023-01-28T05:25:46.609Z,3.72
2023-01-28T05:28:13.267Z,6.68
2023-01-28T05:30:40.027Z,4.40
2023-01-28T05:33:06.797Z,3.80
2023-01-28T05:35:33.652Z,3.50
2023-01-28T05:38:00.364Z,4.55
2023-01-28T05:40:27.041Z,3.53
2023-01-28T05:42:53.839Z,3.70
2023-01-28T05:45:20.732Z,5.97
2023-01-28T05:47:47.396Z,3.47
2023-01-28T05:50:15.701Z,5.20
2023-01-28T05:52:42.820Z,3.38
2023-01-28T05:55:10.501Z,5.22
2023-01-28T05:57:37.455Z,5.88
2023-01-28T06:00:05.670Z,2.78
2023-01-28T06:02:32.545Z,5.57
2023-01-28T06:04:59.842Z,2.80
2023-01-28T06:07:26.578Z,4.72
2023-01-28T06:09:53.213Z,3.85
2023-01-28T06:12:20.009Z,3.92
2023-01-28T06:14:46.714Z,4.30
2023-01-28T06:17:13.364Z,3.50
2023-01-28T06:19:40.278Z,2.28
2023-01-28T06:22:07.062Z,3.03
2023-01-28T06:24:33.916Z,4.25
2023-01-28T06:27:00.645Z,4.07
2023-01-28T06:29:27.666Z,4.47
2023-01-28T06:31:54.720Z,2.90
2023-01-28T06:34:21.579Z,4.40
2023-01-28T06:36:48.270Z,4.47
2023-01-28T06:39:15.177Z,4.15
2023-01-28T06:41:41.986Z,3.53
2023-01-28T06:44:08.791Z,5.50
2023-01-28T06:46:35.510Z,6.95
2023-01-28T06:49:02.369Z,6.05
2023-01-28T06:51:29.135Z,6.45
2023-01-28T06:53:55.770Z,3.10
2023-01-28T06:56:22.581Z,3.72
2023-01-28T06:58:49.444Z,4.88
2023-01-28T07:01:16.158Z,3.75
2023-01-28T07:03:42.832Z,3.10
2023-01-28T07:06:09.647Z,3.20
2023-01-28T07:08:37.743Z,3.53
2023-01-28T07:11:04.776Z,3.50
2023-01-28T07:13:31.507Z,4.15
2023-01-28T07:15:58.267Z,5.65
2023-01-28T07:18:24.997Z,4.72
2023-01-28T07:20:51.797Z,3.80
2023-01-28T07:23:18.491Z,4.32
2023-01-28T07:25:45.152Z,5.03
2023-01-28T07:28:12.961Z,4.30
2023-01-28T07:30:39.652Z,5.72
2023-01-28T07:33:06.444Z,5.72
2023-01-28T07:35:33.247Z,3.38
2023-01-28T07:38:01.271Z,5.75
2023-01-28T07:40:29.067Z,4.03
2023-01-28T07:42:56.724Z,5.13
2023-01-28T07:45:24.840Z,3.67
2023-01-28T07:47:59.844Z,20.40
2023-01-28T07:50:29.077Z,6.57
2023-01-28T07:52:56.838Z,5.13
2023-01-28T07:55:24.421Z,4.90
2023-01-28T07:57:53.460Z,6.22
2023-01-28T08:00:22.327Z,8.68
2023-01-28T08:02:49.702Z,7.72
2023-01-28T08:05:21.275Z,5.22
2023-01-28T08:07:49.100Z,7.70
2023-01-28T08:10:17.834Z,5.68
2023-01-28T08:12:56.307Z,4.82
2023-01-28T08:15:23.628Z,4.15
2023-01-28T08:17:50.850Z,3.58
2023-01-28T08:20:18.020Z,4.57
2023-01-28T08:22:44.952Z,3.30
2023-01-28T08:25:11.633Z,4.57
2023-01-28T08:27:38.407Z,6.20
2023-01-28T08:30:05.999Z,7.50
2023-01-28T08:32:33.040Z,7.07
2023-01-28T08:34:59.941Z,6.88
2023-01-28T08:37:26.796Z,4.68
2023-01-28T08:39:53.652Z,7.65
2023-01-28T08:42:20.297Z,6.70
2023-01-28T08:44:48.060Z,8.52
2023-01-28T08:47:15.210Z,5.72
2023-01-28T08:49:41.940Z,5.85
2023-01-28T08:52:08.685Z,7.03
2023-01-28T08:54:36.469Z,6.05
2023-01-28T08:57:03.991Z,5.60
2023-01-28T08:59:30.805Z,5.78
2023-01-28T09:01:57.747Z,9.07
2023-01-28T09:04:24.506Z,10.32
2023-01-28T09:06:51.336Z,9.60
2023-01-28T09:09:18.128Z,11.07
2023-01-28T09:11:44.947Z,5.05
2023-01-28T09:14:11.747Z,8.18
2023-01-28T09:16:38.429Z,5.05
2023-01-28T09:19:05.274Z,5.00
2023-01-28T09:21:32.043Z,4.93
2023-01-28T09:23:58.761Z,4.47
2023-01-28T09:26:25.475Z,5.50
2023-01-28T09:28:52.200Z,6.13
2023-01-28T09:31:19.023Z,7.50
2023-01-28T09:33:47.646Z,8.90
2023-01-28T09:36:14.322Z,5.07
2023-01-28T09:38:42.199Z,4.72
2023-01-28T09:41:46.411Z,7.00
2023-01-28T09:44:54.111Z,6.15
2023-01-28T09:47:40.272Z,4.28
2023-01-28T09:50:23.636Z,5.40
2023-01-28T09:52:54.321Z,5.53
2023-01-28T09:55:33.116Z,4.03
2023-01-28T09:57:59.952Z,5.43
2023-01-28T10:00:44.831Z,4.97
2023-01-28T10:03:49.089Z,5.97
2023-01-28T10:06:18.610Z,9.43
2023-01-28T10:09:03.456Z,7.38
2023-01-28T10:11:30.114Z,5.95
2023-01-28T10:14:03.224Z,5.05
2023-01-28T10:16:43.077Z,6.60
2023-01-28T10:19:23.257Z,7.22
2023-01-28T10:22:18.950Z,7.20
2023-01-28T10:24:53.713Z,8.05
2023-01-28T10:27:23.435Z,7.95
2023-01-28T10:32:34.277Z,5.85
2023-01-28T10:35:04.445Z,9.38
2023-01-28T10:37:35.505Z,8.20
2023-01-28T10:40:04.069Z,15.23
2023-01-28T10:42:39.131Z,9.65
2023-01-28T10:45:24.007Z,7.95
2023-01-28T10:47:59.938Z,7.10
2023-01-28T10:50:31.735Z,17.85
2023-01-28T10:53:01.800Z,12.43
2023-01-28T10:55:50.995Z,10.27
2023-01-28T10:58:24.626Z,16.38
2023-01-28T11:00:57.542Z,18.60
2023-01-28T11:03:29.149Z,12.50
2023-01-28T11:05:57.371Z,20.27
2023-01-28T11:08:26.728Z,16.60
2023-01-28T11:10:55.660Z,16.92
2023-01-28T11:13:27.962Z,20.05
2023-01-28T11:16:07.085Z,18.38
2023-01-28T11:18:39.527Z,20.35
2023-01-28T11:21:19.599Z,18.50
2023-01-28T11:23:49.268Z,21.70
2023-01-28T11:26:29.312Z,19.27
2023-01-28T11:28:56.368Z,19.83
2023-01-28T11:31:25.815Z,20.88
2023-01-28T11:33:57.336Z,18.00
2023-01-28T11:36:29.812Z,25.13
2023-01-28T11:39:00.090Z,16.45
2023-01-28T11:41:36.836Z,18.40
2023-01-28T11:44:25.324Z,17.98
2023-01-28T11:47:13.689Z,17.42
2023-01-28T11:50:16.045Z,16.45
2023-01-28T11:53:07.198Z,9.07
2023-01-28T11:55:52.559Z,11.02
2023-01-28T11:58:52.503Z,5.38
2023-01-28T12:01:38.121Z,4.38
2023-01-28T12:04:23.060Z,3.03
2023-01-28T12:06:55.370Z,3.95
2023-01-28T12:09:59.273Z,7.50
2023-01-28T12:12:52.082Z,7.18
2023-01-28T12:15:40.454Z,2.85
2023-01-28T12:18:27.735Z,2.63
2023-01-28T12:21:09.255Z,1.73
2023-01-28T12:23:55.055Z,7.07
2023-01-28T12:26:43.191Z,2.55
2023-01-28T12:29:24.069Z,5.50
2023-01-28T12:32:07.131Z,5.43
2023-01-28T12:34:52.514Z,17.40
2023-01-28T12:37:31.068Z,6.65
2023-01-28T12:40:06.028Z,4.68
2023-01-28T12:42:32.620Z,4.00
2023-01-28T12:45:19.884Z,2.28
2023-01-28T12:48:02.507Z,2.53
2023-01-28T12:50:41.468Z,1.85
2023-01-28T12:53:30.127Z,1.30
2023-01-28T12:56:20.088Z,2.67
2023-01-28T12:59:01.986Z,7.13
2023-01-28T13:01:42.883Z,8.40
2023-01-28T13:04:37.781Z,4.75
2023-01-28T13:07:29.181Z,7.55
2023-01-28T13:10:04.685Z,3.83
2023-01-28T13:12:33.403Z,1.58
2023-01-28T13:15:00.815Z,5.05
2023-01-28T13:17:32.594Z,2.35
2023-01-28T13:20:00.108Z,5.28
2023-01-28T13:22:35.025Z,2.33
2023-01-28T13:25:24.545Z,4.45
2023-01-28T13:28:00.171Z,1.70
2023-01-28T13:30:31.629Z,10.55
2023-01-28T13:33:04.704Z,0.93
2023-01-28T13:35:38.204Z,1.15
2023-01-28T13:38:14.075Z,3.03
2023-01-28T13:40:41.835Z,3.83
2023-01-28T13:43:37.233Z,4.82
2023-01-28T13:46:13.466Z,6.55
2023-01-28T13:48:51.910Z,4.78
2023-01-28T13:51:32.778Z,2.22
2023-01-28T13:54:18.947Z,2.05
2023-01-28T13:57:08.263Z,1.55
2023-01-28T13:59:56.676Z,3.65
2023-01-28T14:02:51.700Z,4.00
2023-01-28T14:05:52.262Z,2.38
2023-01-28T14:08:25.056Z,3.03
2023-01-28T14:11:19.774Z,5.10
2023-01-28T14:14:28.229Z,2.40
2023-01-28T14:17:09.930Z,1.40
2023-01-28T14:19:38.426Z,2.08
2023-01-28T14:22:09.784Z,1.55
2023-01-28T14:24:40.556Z,1.08
2023-01-28T14:27:32.979Z,3.50
2023-01-28T14:30:18.274Z,5.47
2023-01-28T14:32:50.420Z,3.08
2023-01-28T14:35:24.222Z,2.10
2023-01-28T14:37:52.016Z,2.95
2023-01-28T14:40:19.670Z,3.33
2023-01-28T14:42:50.519Z,4.35
2023-01-28T14:45:38.371Z,9.35
2023-01-28T14:48:27.506Z,9.32
2023-01-28T14:51:19.170Z,4.20
2023-01-28T14:54:04.734Z,3.00
2023-01-28T14:56:55.513Z,28.00
2023-01-28T14:59:53.879Z,3.47
2023-01-28T15:02:29.230Z,9.65
2023-01-28T15:05:06.974Z,2.60
2023-01-28T15:07:34.021Z,4.32
2023-01-28T15:10:00.648Z,6.10
2023-01-28T15:12:28.317Z,11.15
2023-01-28T15:14:55.206Z,6.22
2023-01-28T15:17:26.533Z,3.30
2023-01-28T15:19:55.967Z,4.45
2023-01-28T15:22:26.966Z,3.50
2023-01-28T15:24:54.860Z,6.35
2023-01-28T15:27:30.608Z,5.03
2023-01-28T15:29:59.593Z,3.42
2023-01-28T15:32:30.931Z,2.33
2023-01-28T15:35:01.232Z,4.18
2023-01-28T15:37:27.940Z,1.67
2023-01-28T15:40:02.351Z,4.32
2023-01-28T15:42:29.506Z,2.85
2023-01-28T15:44:59.834Z,6.88
2023-01-28T15:47:33.770Z,9.00
2023-01-28T15:50:08.294Z,3.60
2023-01-28T15:52:41.717Z,6.18
2023-01-28T15:55:38.401Z,4.30
2023-01-28T15:58:19.377Z,2.88
2023-01-28T16:00:48.107Z,8.95
2023-01-28T16:03:20.346Z,5.55
2023-01-28T16:06:03.681Z,6.85
2023-01-28T16:08:39.799Z,9.82
2023-01-28T16:11:07.435Z,9.38
2023-01-28T16:13:35.066Z,12.90
2023-01-28T16:16:04.569Z,7.10
2023-01-28T16:18:40.361Z,6.70
2023-01-28T16:21:11.781Z,7.63
2023-01-28T16:23:39.662Z,9.13
2023-01-28T16:26:24.213Z,8.80
2023-01-28T16:31:18.117Z,9.38
2023-01-28T16:33:45.066Z,7.80
2023-01-28T16:36:14.603Z,4.78
2023-01-28T16:38:41.645Z,6.55
2023-01-28T16:41:29.505Z,4.63
2023-01-28T16:43:56.428Z,4.35
2023-01-28T16:46:27.451Z,5.88
2023-01-28T16:48:54.254Z,8.65
2023-01-28T16:51:21.088Z,11.20
2023-01-28T16:53:48.958Z,6.57
2023-01-28T16:56:43.973Z,8.35
2023-01-28T16:59:12.096Z,7.53
2023-01-28T17:01:39.579Z,9.00
2023-01-28T17:04:12.097Z,9.35
2023-01-28T17:06:43.300Z,6.10
2023-01-28T17:09:14.183Z,9.73
2023-01-28T17:11:41.390Z,10.13
2023-01-28T17:14:09.085Z,7.75
2023-01-28T17:16:36.314Z,8.25
2023-01-28T17:19:03.393Z,10.77
2023-01-28T17:21:30.046Z,5.85
2023-01-28T17:23:59.240Z,6.57
2023-01-28T17:26:26.813Z,9.23
2023-01-28T17:28:53.977Z,6.53
2023-01-28T17:31:21.662Z,8.90
2023-01-28T17:33:52.832Z,4.53
2023-01-28T17:36:19.483Z,4.60
2023-01-28T17:38:46.150Z,4.65
2023-01-28T17:41:14.118Z,6.53
2023-01-28T17:43:41.139Z,6.95
2023-01-28T17:46:15.620Z,6.75
2023-01-28T17:48:45.593Z,6.43
2023-01-28T17:51:13.320Z,6.38
2023-01-28T17:53:40.234Z,7.93
2023-01-28T17:56:14.074Z,10.40
2023-01-28T17:58:40.782Z,8.98
2023-01-28T18:01:10.913Z,9.18
2023-01-28T18:03:37.599Z,5.25
2023-01-28T18:06:04.825Z,5.28
2023-01-28T18:08:31.449Z,7.63
2023-01-28T18:10:58.379Z,6.68
2023-01-28T18:13:25.090Z,6.88
2023-01-28T18:15:51.762Z,10.18
2023-01-28T18:18:18.486Z,7.72
2023-01-28T18:20:45.142Z,6.55
2023-01-28T18:23:11.865Z,7.07
2023-01-28T18:25:38.537Z,7.22
2023-01-28T18:28:05.675Z,8.88
2023-01-28T18:30:32.371Z,7.68
2023-01-28T18:32:59.013Z,6.45
2023-01-28T18:35:25.657Z,11.60
2023-01-28T18:37:52.337Z,15.43
2023-01-28T18:40:19.237Z,10.57
2023-01-28T18:42:46.024Z,8.30
2023-01-28T18:45:12.713Z,11.70
2023-01-28T18:47:39.426Z,10.18
2023-01-28T18:50:06.610Z,11.50
2023-01-28T18:52:33.341Z,10.20
2023-01-28T18:54:59.992Z,11.60
2023-01-28T18:57:26.735Z,8.48
2023-01-28T18:59:53.437Z,6.97
2023-01-28T19:02:20.141Z,6.93
2023-01-28T19:04:46.939Z,14.93
2023-01-28T19:07:13.717Z,6.93
2023-01-28T19:09:40.476Z,6.30
2023-01-28T19:12:07.198Z,6.40
2023-01-28T19:14:34.001Z,7.80
2023-01-28T19:17:00.965Z,6.28
2023-01-28T19:19:27.764Z,5.88
2023-01-28T19:21:54.564Z,3.85
2023-01-28T19:24:21.350Z,6.63
2023-01-28T19:26:48.118Z,3.58
2023-01-28T19:29:16.212Z,4.50
2023-01-28T19:31:44.528Z,4.70
2023-01-28T19:34:11.598Z,4.97
2023-01-28T19:36:38.719Z,5.13
2023-01-28T19:39:07.502Z,5.68
2023-01-28T19:41:35.008Z,5.38
2023-01-28T19:44:01.732Z,6.65
2023-01-28T19:46:28.601Z,8.10
2023-01-28T19:48:55.498Z,9.45
2023-01-28T19:51:22.678Z,10.52
2023-01-28T19:53:53.520Z,9.02
2023-01-28T19:56:21.785Z,6.50
2023-01-28T19:58:48.617Z,10.73
2023-01-28T20:01:21.638Z,6.82
2023-01-28T20:03:54.518Z,8.40
2023-01-28T20:06:23.671Z,11.38
2023-01-28T20:08:57.311Z,5.68
2023-01-28T20:11:24.607Z,5.78
2023-01-28T20:13:51.924Z,11.15
2023-01-28T20:16:27.450Z,5.97
2023-01-28T20:18:57.145Z,7.40
2023-01-28T20:21:24.808Z,6.03
2023-01-28T20:23:54.042Z,7.57
2023-01-28T20:26:23.702Z,7.85
2023-01-28T20:28:51.075Z,4.78
2023-01-28T20:31:18.986Z,10.52
2023-01-28T20:33:45.950Z,6.70
2023-01-28T20:36:13.682Z,10.23
2023-01-28T20:38:46.112Z,9.27
2023-01-28T20:41:21.678Z,6.47
2023-01-28T20:43:49.850Z,6.70
2023-01-28T20:46:22.213Z,5.20
2023-01-28T20:48:50.166Z,5.05
2023-01-28T20:51:18.312Z,5.35
2023-01-28T20:53:46.153Z,4.00
2023-01-28T20:56:14.655Z,2.88
2023-01-28T20:58:41.880Z,3.22
2023-01-28T21:01:15.396Z,3.78
2023-01-28T21:03:42.054Z,4.22
2023-01-28T21:06:08.792Z,3.63
2023-01-28T21:08:35.441Z,4.28
2023-01-28T21:11:03.064Z,3.38
2023-01-28T21:13:29.873Z,5.00
2023-01-28T21:15:58.039Z,4.82
2023-01-28T21:18:25.446Z,3.40
2023-01-28T21:20:53.682Z,5.68
2023-01-28T21:23:22.300Z,4.78
2023-01-28T21:25:52.470Z,7.82
2023-01-28T21:28:20.301Z,5.78
2023-01-28T21:30:47.565Z,4.82
2023-01-28T21:33:14.404Z,4.78
2023-01-28T21:35:43.529Z,8.23
2023-01-28T21:38:11.363Z,11.93
2023-01-28T21:40:38.737Z,6.43
2023-01-28T21:43:05.646Z,6.68
2023-01-28T21:45:32.381Z,3.97
2023-01-28T21:47:59.202Z,7.72
2023-01-28T21:50:25.881Z,4.53
2023-01-28T21:52:52.527Z,7.53
2023-01-28T21:55:19.461Z,5.60
2023-01-28T21:57:46.137Z,7.38
2023-01-28T22:00:13.105Z,4.03
2023-01-28T22:02:40.234Z,6.55
2023-01-28T22:05:07.536Z,15.85
2023-01-28T22:07:34.200Z,8.55
2023-01-28T22:10:00.965Z,7.57
2023-01-28T22:12:28.072Z,4.68
2023-01-28T22:14:55.179Z,6.07
2023-01-28T22:17:22.044Z,7.35
2023-01-28T22:19:48.903Z,5.93
2023-01-28T22:22:16.667Z,5.40
2023-01-28T22:24:43.785Z,5.53
2023-01-28T22:27:10.779Z,7.43
2023-01-28T22:29:37.460Z,5.50
2023-01-28T22:32:04.932Z,5.18
2023-01-28T22:34:32.158Z,4.60
2023-01-28T22:36:58.887Z,5.97
2023-01-28T22:39:25.644Z,4.70
2023-01-28T22:41:52.490Z,7.30
2023-01-28T22:44:20.030Z,4.05
2023-01-28T22:46:47.548Z,5.53
2023-01-28T22:49:15.063Z,4.90
2023-01-28T22:51:41.968Z,6.60
2023-01-28T22:54:14.914Z,9.20
2023-01-28T22:56:41.755Z,5.67
2023-01-28T22:59:09.916Z,6.57
2023-01-28T23:01:36.936Z,4.60
2023-01-28T23:04:03.904Z,6.25
2023-01-28T23:06:31.026Z,4.78
2023-01-28T23:08:57.827Z,6.80
2023-01-28T23:11:25.469Z,6.93
2023-01-28T23:14:14.243Z,5.70
2023-01-28T23:16:59.932Z,7.13
2023-01-28T23:19:45.418Z,4.75
2023-01-28T23:22:45.538Z,8.65
2023-01-28T23:25:12.817Z,5.53
2023-01-28T23:27:39.535Z,8.43
2023-01-28T23:30:09.941Z,4.77
2023-01-28T23:32:40.114Z,8.48
2023-01-28T23:35:11.175Z,7.68
2023-01-28T23:37:38.482Z,6.25
2023-01-28T23:40:06.583Z,5.93
2023-01-28T23:42:33.301Z,4.45
2023-01-28T23:45:00.046Z,10.85
2023-01-28T23:47:26.975Z,10.85
2023-01-28T23:49:53.729Z,6.78
2023-01-28T23:52:20.798Z,5.85
2023-01-28T23:54:47.546Z,7.85
2023-01-28T23:57:14.324Z,4.32
2023-01-28T23:59:41.264Z,6.93
